Dassault Systemes SA Net Profit Margin 2010-2024 | DASTY

Current and historical net profit margin for Dassault Systemes SA (DASTY) from 2010 to 2024. Net profit margin can be defined as net Income as a portion of total sales revenue. Dassault Systemes SA net profit margin for the three months ending March 31, 2024 was .
Dassault Systemes SA Net Profit Margin Historical Data
Date TTM Revenue TTM Net Income Net Margin
2024-03-31 $4.72B $0.85B 17.99%
2023-09-30 $4.47B $0.76B 16.88%
2023-03-31 $5.98B $1.06B 17.73%
2022-09-30 $5.81B $1.00B 17.19%
2022-03-31 $5.82B $1.00B 17.21%
2021-12-31 $5.75B $0.92B 15.91%
2021-09-30 $5.63B $0.88B 15.62%
2021-06-30 $5.47B $0.78B 14.17%
2021-03-31 $5.25B $0.65B 12.31%
2020-12-31 $5.09B $0.56B 11.01%
2020-09-30 $4.95B $0.53B 10.61%
2020-06-30 $4.76B $0.57B 12.00%
2020-03-31 $4.66B $0.63B 13.53%
2019-12-31 $4.50B $0.69B 15.33%
2019-09-30 $4.39B $0.72B 16.48%
2019-06-30 $4.33B $0.72B 16.62%
2019-03-31 $4.25B $0.73B 17.20%
2018-12-31 $4.11B $0.67B 16.36%
2018-09-30 $3.98B $0.67B 16.91%
2018-06-30 $3.90B $0.65B 16.60%
2018-03-31 $3.79B $0.62B 16.38%
2017-12-31 $3.65B $0.59B 16.09%
2017-09-30 $3.53B $0.51B 14.35%
2017-06-30 $3.46B $0.51B 14.64%
2017-03-31 $3.43B $0.49B 14.18%
2016-12-31 $3.38B $0.49B 14.61%
2016-09-30 $3.25B $0.47B 14.54%
2016-06-30 $3.18B $0.46B 14.56%
2016-03-31 $3.12B $0.46B 14.75%
2015-12-31 $3.15B $0.45B 14.17%
2015-09-30 $3.11B $0.43B 13.75%
2015-06-30 $3.07B $0.40B 13.08%
2015-03-31 $3.03B $0.38B 12.57%
2014-12-31 $2.93B $0.37B 12.60%
2014-09-30 $2.92B $0.40B 13.73%
2014-06-30 $2.89B $0.43B 14.99%
2014-03-31 $2.83B $0.45B 15.91%
2013-12-31 $2.77B $0.47B 17.06%
2013-09-30 $2.77B $0.46B 16.49%
2013-06-30 $2.73B $0.44B 16.09%
2013-03-31 $2.65B $0.44B 16.39%
2012-12-31 $2.63B $0.43B 16.51%
2012-09-30 $2.55B $0.42B 16.35%
2012-06-30 $2.50B $0.42B 16.61%
2012-03-31 $2.51B $0.41B 16.19%
2011-12-31 $2.46B $0.40B 16.17%
2011-09-30 $2.41B $0.39B 16.28%
2011-06-30 $2.33B $0.36B 15.35%
2011-03-31 $2.21B $0.33B 14.81%
2010-12-31 $2.07B $0.29B 14.06%
2010-09-30 $1.94B $0.30B 15.38%
2010-06-30 $1.85B $0.28B 15.37%
2010-03-31 $1.79B $0.26B 14.39%
2009-12-31 $1.78B $0.25B 13.76%
Sector Industry Market Cap Revenue
Computer and Technology Computer Software $49.469B $6.441B
Dassault Systemes is a worldwide recognized leader in CAD/CAM/CAE and PDM II markets. The company's mission to provide solutions to enable customersto build their digital enterprise, by defining, simulating, managing and optimizing concurrently product, manufacturing process, and resources. In this virtual space, customers create innovative, high quality, safe and affordable products. The company delivers scaleable process and design-centric solutions on both Unix and Windows NT environments.
Stock Name Country Market Cap PE Ratio
Microsoft (MSFT) United States $3272.965B 38.13
Oracle (ORCL) United States $380.391B 30.88
Adobe (ADBE) United States $246.907B 39.95
Salesforce (CRM) United States $239.682B 35.69
Intuit (INTU) United States $178.203B 55.53
Synopsys (SNPS) United States $85.859B 59.17
Cadence Design Systems (CDNS) United States $75.687B 71.98
Autodesk (ADSK) United States $52.328B 47.70
MicroStrategy (MSTR) United States $27.585B 0.00
ANSYS (ANSS) United States $27.558B 51.00
PTC (PTC) United States $21.077B 55.90
SS&C Technologies Holdings (SSNC) United States $16.724B 15.84
Manhattan Associates (MANH) United States $13.487B 71.58
Descartes Systems Group (DSGX) Canada $8.417B 70.41
Open Text (OTEX) Canada $8.261B 8.48
Trend Micro (TMICY) Japan $6.332B 45.86
CommVault Systems (CVLT) United States $5.304B 85.94
Pegasystems (PEGA) United States $5.069B 44.83
ACI Worldwide (ACIW) United States $4.408B 21.12
Blackbaud (BLKB) United States $3.975B 34.22
Progress Software (PRGS) United States $2.414B 15.50
Sapiens (SPNS) Israel $2.149B 29.31
Verint Systems (VRNT) United States $2.055B 19.25
BlackBerry (BB) Canada $1.423B 0.00
PROS Holdings (PRO) United States $1.115B 0.00
Simulations Plus (SLP) United States $0.828B 61.73
Rand Worldwide (RWWI) United States $0.663B 0.00
Magic Software Enterprises (MGIC) Israel $0.552B 11.72
Canaan (CAN) China $0.331B 0.00
American Software (AMSWA) United States $0.323B 27.77
Rigetti Computing (RGTI) United States $0.187B 0.00
OptimizeRx (OPRX) United States $0.186B 0.00
Neonode (NEON) Sweden $0.049B 0.00
Icad Inc (ICAD) United States $0.036B 0.00
NetSol Technologies (NTWK) United States $0.032B 0.00
Wetouch Technology (WETH) $0.028B 0.00
Smith Micro Software (SMSI) United States $0.022B 0.00
Hanryu Holdings (HRYU) South Korea $0.015B 0.00
GSE Systems (GVP) United States $0.011B 0.00
SAP SE (SAP) Germany $0.000B 50.44